createdAt,value
2018-01-28T00:00:47.160Z,1016.81
2018-01-28T00:01:52.920Z,1016.73
2018-01-28T00:03:01.161Z,1016.81
2018-01-28T00:04:06.161Z,1016.69
2018-01-28T00:05:07.660Z,1016.72
2018-01-28T00:06:11.892Z,1016.76
2018-01-28T00:07:22.670Z,1016.77
2018-01-28T00:08:22.166Z,1016.79
2018-01-28T00:09:29.169Z,1016.93
2018-01-28T00:10:38.663Z,1016.87
2018-01-28T00:11:40.162Z,1016.86
2018-01-28T00:12:51.664Z,1016.88
2018-01-28T00:13:56.662Z,1016.88
2018-01-28T00:14:59.663Z,1016.77
2018-01-28T00:16:05.164Z,1016.81
2018-01-28T00:17:02.751Z,1016.73
2018-01-28T00:18:03.167Z,1016.84
2018-01-28T00:19:14.134Z,1016.80
2018-01-28T00:20:22.023Z,1016.80
2018-01-28T00:21:37.800Z,1016.76
2018-01-28T00:22:37.398Z,1016.75
2018-01-28T00:23:41.501Z,1016.79
2018-01-28T00:24:40.586Z,1016.79
2018-01-28T00:25:46.944Z,1016.82
2018-01-28T00:26:46.744Z,1016.82
2018-01-28T00:27:55.569Z,1016.80
2018-01-28T00:29:04.382Z,1016.76
2018-01-28T00:30:13.287Z,1016.74
2018-01-28T00:31:14.318Z,1016.76
2018-01-28T00:32:19.239Z,1016.73
2018-01-28T00:33:26.006Z,1016.67
2018-01-28T00:34:35.127Z,1016.69
2018-01-28T00:35:43.837Z,1016.65
2018-01-28T00:36:44.868Z,1016.70
2018-01-28T00:37:48.259Z,1016.66
2018-01-28T00:38:54.917Z,1016.72
2018-01-28T00:41:05.069Z,1016.66
2018-01-28T00:42:11.685Z,1016.71
2018-01-28T00:44:18.504Z,1016.70
2018-01-28T00:45:22.506Z,1016.70
2018-01-28T00:46:39.203Z,1016.64
2018-01-28T00:47:32.143Z,1016.70
2018-01-28T00:48:38.807Z,1016.66
2018-01-28T00:49:59.705Z,1016.66
2018-01-28T00:52:02.179Z,1016.74
2018-01-28T00:53:14.983Z,1016.70
2018-01-28T00:54:17.754Z,1016.63
2018-01-28T00:55:20.834Z,1016.56
2018-01-28T00:56:20.848Z,1016.53
2018-01-28T00:57:25.769Z,1016.44
2018-01-28T00:58:40.524Z,1016.41
2018-01-28T00:59:41.445Z,1016.39
2018-01-28T01:00:37.158Z,1016.40
2018-01-28T01:01:44.939Z,1016.28
2018-01-28T01:02:49.657Z,1016.21
2018-01-28T01:04:03.897Z,1016.27
2018-01-28T01:05:09.540Z,1016.38
2018-01-28T01:06:13.333Z,1016.40
2018-01-28T01:07:17.333Z,1016.34
2018-01-28T01:08:25.636Z,1016.34
2018-01-28T01:09:25.334Z,1016.31
2018-01-28T01:10:28.113Z,1016.33
2018-01-28T01:11:31.798Z,1016.36
2018-01-28T01:12:47.380Z,1016.37
2018-01-28T01:13:43.488Z,1016.44
2018-01-28T01:14:57.124Z,1016.38
2018-01-28T01:15:59.987Z,1016.37
2018-01-28T01:17:11.568Z,1016.29
2018-01-28T01:18:12.180Z,1016.26
2018-01-28T01:19:24.586Z,1016.20
2018-01-28T01:20:22.340Z,1016.27
2018-01-28T01:21:38.323Z,1016.22
2018-01-28T01:22:38.227Z,1016.12
2018-01-28T01:23:47.970Z,1016.18
2018-01-28T01:24:48.585Z,1016.14
2018-01-28T01:26:02.932Z,1016.13
2018-01-28T01:27:11.648Z,1016.19
2018-01-28T01:28:01.914Z,1016.30
2018-01-28T01:29:05.402Z,1016.26
2018-01-28T01:30:08.692Z,1016.31
2018-01-28T01:31:15.863Z,1016.40
2018-01-28T01:32:28.058Z,1016.38
2018-01-28T01:33:24.580Z,1016.42
2018-01-28T01:34:41.994Z,1016.51
2018-01-28T01:35:39.851Z,1016.63
2018-01-28T01:36:42.736Z,1016.67
2018-01-28T01:38:04.034Z,1016.66
2018-01-28T01:42:26.180Z,1016.47
2018-01-28T01:43:25.468Z,1016.45
2018-01-28T01:44:24.558Z,1016.47
2018-01-28T01:45:28.861Z,1016.46
2018-01-28T01:46:40.239Z,1016.52
2018-01-28T01:47:53.965Z,1016.46
2018-01-28T01:48:47.216Z,1016.51
2018-01-28T01:49:49.779Z,1016.40
2018-01-28T01:50:56.033Z,1016.47
2018-01-28T01:52:08.535Z,1016.52
2018-01-28T01:54:13.359Z,1016.53
2018-01-28T01:55:21.149Z,1016.59
2018-01-28T01:56:22.385Z,1016.55
2018-01-28T01:57:29.253Z,1016.60
2018-01-28T01:58:37.554Z,1016.61
2018-01-28T01:59:40.740Z,1016.59
2018-01-28T02:00:52.754Z,1016.50
2018-01-28T02:02:00.000Z,1016.58
2018-01-28T02:04:07.081Z,1016.51
2018-01-28T02:05:08.521Z,1016.51
2018-01-28T02:06:21.533Z,1016.53
2018-01-28T02:07:24.406Z,1016.51
2018-01-28T02:08:24.192Z,1016.61
2018-01-28T02:10:33.747Z,1016.55
2018-01-28T02:11:36.722Z,1016.57
2018-01-28T02:12:46.663Z,1016.51
2018-01-28T02:13:59.267Z,1016.53
2018-01-28T02:14:58.555Z,1016.54
2018-01-28T02:16:10.647Z,1016.51
2018-01-28T02:17:17.001Z,1016.53
2018-01-28T02:18:23.706Z,1016.51
2018-01-28T02:20:27.262Z,1016.50
2018-01-28T02:21:28.499Z,1016.51
2018-01-28T02:23:43.054Z,1016.56
2018-01-28T02:24:46.645Z,1016.50
2018-01-28T02:25:54.433Z,1016.49
2018-01-28T02:29:18.215Z,1016.53
2018-01-28T02:30:13.200Z,1016.49
2018-01-28T02:31:26.216Z,1016.44
2018-01-28T02:32:30.009Z,1016.55
2018-01-28T02:33:35.442Z,1016.51
2018-01-28T02:34:42.109Z,1016.56
2018-01-28T02:35:54.301Z,1016.60
2018-01-28T02:37:55.652Z,1016.54
2018-01-28T02:39:06.918Z,1016.62
2018-01-28T02:40:09.592Z,1016.59
2018-01-28T02:41:09.182Z,1016.59
2018-01-28T02:42:21.885Z,1016.56
2018-01-28T02:43:24.146Z,1016.55
2018-01-28T02:44:28.863Z,1016.56
2018-01-28T02:45:34.809Z,1016.51
2018-01-28T02:46:42.188Z,1016.45
2018-01-28T02:47:51.105Z,1016.48
2018-01-28T02:50:01.360Z,1016.41
2018-01-28T02:51:02.595Z,1016.31
2018-01-28T02:52:08.029Z,1016.33
2018-01-28T02:53:25.239Z,1016.35
2018-01-28T02:54:22.072Z,1016.27
2018-01-28T02:55:22.898Z,1016.36
2018-01-28T02:56:28.128Z,1016.39
2018-01-28T02:58:41.452Z,1016.36
2018-01-28T02:59:44.225Z,1016.34
2018-01-28T03:00:53.140Z,1016.38
2018-01-28T03:03:10.767Z,1016.43
2018-01-28T03:04:28.696Z,1016.47
2018-01-28T03:05:16.619Z,1016.42
2018-01-28T03:06:21.339Z,1016.40
2018-01-28T03:07:37.727Z,1016.39
2018-01-28T03:08:34.156Z,1016.43
2018-01-28T03:09:38.970Z,1016.32
2018-01-28T03:10:52.596Z,1016.31
2018-01-28T03:11:56.494Z,1016.30
2018-01-28T03:13:01.520Z,1016.36
2018-01-28T03:14:03.369Z,1016.44
2018-01-28T03:15:02.660Z,1016.53
2018-01-28T03:16:05.328Z,1016.53
2018-01-28T03:17:14.961Z,1016.55
2018-01-28T03:18:35.658Z,1016.62
2018-01-28T03:19:21.938Z,1016.66
2018-01-28T03:20:30.761Z,1016.63
2018-01-28T03:21:52.161Z,1016.59
2018-01-28T03:22:48.993Z,1016.56
2018-01-28T03:25:11.749Z,1016.64
2018-01-28T03:27:16.259Z,1016.58
2018-01-28T03:28:24.713Z,1016.64
2018-01-28T03:29:26.948Z,1016.65
2018-01-28T03:30:24.372Z,1016.59
2018-01-28T03:31:40.661Z,1016.56
2018-01-28T03:32:48.450Z,1016.63
2018-01-28T03:33:47.637Z,1016.60
2018-01-28T03:35:01.161Z,1016.65
2018-01-28T03:36:08.950Z,1016.64
2018-01-28T03:37:07.628Z,1016.66
2018-01-28T03:40:21.368Z,1016.71
2018-01-28T03:41:36.223Z,1016.75
2018-01-28T03:42:33.772Z,1016.78
2018-01-28T03:43:40.026Z,1016.79
2018-01-28T03:45:54.581Z,1016.74
2018-01-28T03:46:34.517Z,1016.67
2018-01-28T03:48:04.323Z,1016.82
2018-01-28T03:49:01.466Z,1016.77
2018-01-28T03:50:01.059Z,1016.79
2018-01-28T03:51:23.800Z,1016.85
2018-01-28T03:52:10.699Z,1016.85
2018-01-28T03:53:13.471Z,1016.87
2018-01-28T03:54:45.326Z,1016.94
2018-01-28T03:55:49.019Z,1017.00
2018-01-28T03:56:25.679Z,1017.00
2018-01-28T03:57:46.688Z,1017.06
2018-01-28T03:58:53.852Z,1017.07
2018-01-28T03:59:43.321Z,1017.03
2018-01-28T04:01:09.434Z,1017.02
2018-01-28T04:02:13.227Z,1016.84
2018-01-28T04:03:34.942Z,1016.86
2018-01-28T04:04:36.898Z,1016.92
2018-01-28T04:05:44.788Z,1016.85
2018-01-28T04:07:39.168Z,1016.76
2018-01-28T04:09:03.344Z,1016.77
2018-01-28T04:10:08.163Z,1016.83
2018-01-28T04:11:10.429Z,1016.86
2018-01-28T04:13:11.461Z,1016.88
2018-01-28T04:14:26.115Z,1016.90
2018-01-28T04:16:31.347Z,1016.84
2018-01-28T04:17:30.024Z,1016.87
2018-01-28T04:19:45.908Z,1016.92
2018-01-28T04:21:12.541Z,1016.94
2018-01-28T04:22:02.411Z,1016.91
2018-01-28T04:23:12.350Z,1016.86
2018-01-28T04:23:59.405Z,1016.81
2018-01-28T04:26:24.762Z,1016.86
2018-01-28T04:27:50.780Z,1016.82
2018-01-28T04:29:55.298Z,1016.89
2018-01-28T04:31:13.123Z,1016.95
2018-01-28T04:32:26.953Z,1016.89
2018-01-28T04:33:33.922Z,1016.90
2018-01-28T04:35:49.400Z,1016.94
2018-01-28T04:36:25.444Z,1016.90
2018-01-28T04:37:55.772Z,1016.90
2018-01-28T04:39:02.938Z,1016.91
2018-01-28T04:40:09.702Z,1016.86
2018-01-28T04:40:58.652Z,1016.84
2018-01-28T04:42:22.620Z,1016.92
2018-01-28T04:43:57.341Z,1016.88
2018-01-28T04:44:55.709Z,1016.91
2018-01-28T04:45:47.218Z,1016.89
2018-01-28T04:47:10.776Z,1016.91
2018-01-28T04:48:50.514Z,1017.02
2018-01-28T04:50:06.397Z,1016.97
2018-01-28T04:51:43.366Z,1016.98
2018-01-28T04:52:28.117Z,1016.98
2018-01-28T04:54:34.890Z,1017.04
2018-01-28T04:55:41.653Z,1017.09
2018-01-28T04:56:12.585Z,1017.16
2018-01-28T04:57:28.152Z,1017.11
2018-01-28T04:58:42.597Z,1017.04
2018-01-28T04:59:29.504Z,1017.05
2018-01-28T05:01:56.443Z,1017.06
2018-01-28T05:03:42.435Z,1017.03
2018-01-28T05:06:01.285Z,1017.03
2018-01-28T05:07:05.695Z,1017.04
2018-01-28T05:07:53.617Z,1017.01
2018-01-28T05:09:00.484Z,1017.03
2018-01-28T05:10:02.643Z,1017.00
2018-01-28T05:11:26.713Z,1017.01
2018-01-28T05:13:56.217Z,1017.04
2018-01-28T05:14:30.728Z,1017.08
2018-01-28T05:16:13.025Z,1017.12
2018-01-28T05:17:09.552Z,1017.12
2018-01-28T05:17:56.451Z,1017.15
2018-01-28T05:19:14.378Z,1017.20
2018-01-28T05:20:30.975Z,1017.21
2018-01-28T05:21:47.978Z,1017.23
2018-01-28T05:23:07.034Z,1017.28
2018-01-28T05:24:25.779Z,1017.20
2018-01-28T05:25:33.466Z,1017.21
2018-01-28T05:26:32.244Z,1017.16
2018-01-28T05:27:32.970Z,1017.15
2018-01-28T05:28:56.834Z,1017.10
2018-01-28T05:29:36.975Z,1017.08
2018-01-28T05:30:52.753Z,1017.08
2018-01-28T05:31:44.568Z,1017.15
2018-01-28T05:32:51.230Z,1017.16
2018-01-28T05:34:15.751Z,1017.15
2018-01-28T05:35:04.966Z,1017.21
2018-01-28T05:35:54.016Z,1017.29
2018-01-28T05:37:24.746Z,1017.35
2018-01-28T05:38:34.684Z,1017.30
2018-01-28T05:39:34.075Z,1017.35
2018-01-28T05:40:16.675Z,1017.32
2018-01-28T05:41:42.178Z,1017.31
2018-01-28T05:42:35.427Z,1017.31
2018-01-28T05:43:44.958Z,1017.30
2018-01-28T05:44:42.097Z,1017.29
2018-01-28T05:45:46.715Z,1017.30
2018-01-28T05:47:07.097Z,1017.30
2018-01-28T05:47:53.587Z,1017.30
2018-01-28T05:49:40.290Z,1017.22
2018-01-28T05:50:34.972Z,1017.20
2018-01-28T05:51:24.946Z,1017.22
2018-01-28T05:52:18.088Z,1017.18
2018-01-28T05:53:41.033Z,1017.20
2018-01-28T05:54:55.685Z,1017.11
2018-01-28T05:55:41.252Z,1017.17
2018-01-28T05:56:55.698Z,1017.20
2018-01-28T05:58:04.312Z,1017.20
2018-01-28T05:59:00.629Z,1017.26
2018-01-28T06:01:16.718Z,1017.28
2018-01-28T06:03:48.067Z,1017.25
2018-01-28T06:04:42.957Z,1017.37
2018-01-28T06:05:28.215Z,1017.31
2018-01-28T06:06:39.796Z,1017.31
2018-01-28T06:07:30.276Z,1017.29
2018-01-28T06:08:47.801Z,1017.32
2018-01-28T06:09:51.183Z,1017.23
2018-01-28T06:11:01.837Z,1017.30
2018-01-28T06:12:17.409Z,1017.34
2018-01-28T06:13:17.726Z,1017.34
2018-01-28T06:14:02.788Z,1017.41
2018-01-28T06:15:14.871Z,1017.39
2018-01-28T06:16:35.256Z,1017.42
2018-01-28T06:17:30.346Z,1017.44
2018-01-28T06:18:42.338Z,1017.48
2018-01-28T06:19:49.715Z,1017.48
2018-01-28T06:20:51.872Z,1017.49
2018-01-28T06:21:46.143Z,1017.58
2018-01-28T06:23:07.553Z,1017.65
2018-01-28T06:24:09.815Z,1017.64
2018-01-28T06:25:14.632Z,1017.78
2018-01-28T06:26:17.301Z,1017.80
2018-01-28T06:27:14.237Z,1017.83
2018-01-28T06:28:24.893Z,1017.89
2018-01-28T06:29:32.579Z,1017.86
2018-01-28T06:30:42.419Z,1017.86
2018-01-28T06:31:33.720Z,1017.84
2018-01-28T06:34:11.317Z,1017.92
2018-01-28T06:35:09.583Z,1017.98
2018-01-28T06:36:18.395Z,1018.06
2018-01-28T06:37:22.601Z,1018.07
2018-01-28T06:38:27.420Z,1018.10
2018-01-28T06:39:22.512Z,1018.04
2018-01-28T06:40:31.269Z,1018.06
2018-01-28T06:41:44.645Z,1018.05
2018-01-28T06:43:45.274Z,1018.09
2018-01-28T06:44:46.613Z,1018.10
2018-01-28T06:45:56.143Z,1018.04
2018-01-28T06:47:16.833Z,1018.02
2018-01-28T06:48:12.447Z,1018.04
2018-01-28T06:49:11.011Z,1017.97
2018-01-28T06:50:16.650Z,1018.01
2018-01-28T06:51:22.697Z,1018.07
2018-01-28T06:52:42.265Z,1017.95
2018-01-28T06:53:25.068Z,1018.00
2018-01-28T06:54:46.171Z,1018.05
2018-01-28T06:55:44.332Z,1018.10
2018-01-28T06:56:52.737Z,1018.05
2018-01-28T06:57:49.979Z,1018.11
2018-01-28T06:59:00.534Z,1018.08
2018-01-28T07:00:12.317Z,1018.11
2018-01-28T07:01:13.552Z,1018.04
2018-01-28T07:02:17.349Z,1017.98
2018-01-28T07:03:27.600Z,1018.03
2018-01-28T07:04:18.285Z,1018.08
2018-01-28T07:05:29.965Z,1018.07
2018-01-28T07:06:40.522Z,1018.03
2018-01-28T07:07:52.406Z,1018.03
2018-01-28T07:08:47.598Z,1018.01
2018-01-28T07:09:53.135Z,1018.06
2018-01-28T07:11:00.309Z,1018.03
2018-01-28T07:13:06.060Z,1018.21
2018-01-28T07:14:22.453Z,1018.21
2018-01-28T07:15:38.329Z,1018.25
2018-01-28T07:16:29.222Z,1018.24
2018-01-28T07:17:43.364Z,1018.24
2018-01-28T07:18:34.866Z,1018.22
2018-01-28T07:19:56.993Z,1018.18
2018-01-28T07:21:50.249Z,1018.29
2018-01-28T07:23:03.363Z,1018.23
2018-01-28T07:24:13.507Z,1018.19
2018-01-28T07:26:28.678Z,1018.22
2018-01-28T07:27:21.287Z,1018.28
2018-01-28T07:28:29.305Z,1018.38
2018-01-28T07:29:42.521Z,1018.38
2018-01-28T07:30:50.209Z,1018.39
2018-01-28T07:31:45.308Z,1018.36
2018-01-28T07:34:59.152Z,1018.44
2018-01-28T07:36:12.977Z,1018.44
2018-01-28T07:37:17.488Z,1018.41
2018-01-28T07:38:27.783Z,1018.47
2018-01-28T07:39:24.465Z,1018.47
2018-01-28T07:40:24.164Z,1018.52
2018-01-28T07:41:40.764Z,1018.58
2018-01-28T07:42:43.636Z,1018.59
2018-01-28T07:43:44.464Z,1018.58
2018-01-28T07:46:03.317Z,1018.64
2018-01-28T07:47:08.137Z,1018.65
2018-01-28T07:49:12.863Z,1018.69
2018-01-28T07:50:27.004Z,1018.72
2018-01-28T07:51:23.326Z,1018.77
2018-01-28T07:53:36.139Z,1018.71
2018-01-28T07:55:37.583Z,1018.71
2018-01-28T07:57:00.119Z,1018.74
2018-01-28T07:57:45.481Z,1018.69
2018-01-28T08:02:37.837Z,1018.80
2018-01-28T08:03:17.309Z,1018.81
2018-01-28T08:04:27.711Z,1018.82
2018-01-28T08:05:40.316Z,1018.75
2018-01-28T08:06:39.400Z,1018.74
2018-01-28T08:07:51.286Z,1018.82
2018-01-28T08:08:49.960Z,1018.77
2018-01-28T08:10:05.226Z,1018.77
2018-01-28T08:11:02.162Z,1018.76
2018-01-28T08:12:11.692Z,1018.69
2018-01-28T08:13:09.446Z,1018.67
2018-01-28T08:14:23.586Z,1018.71
2018-01-28T08:15:36.698Z,1018.71
2018-01-28T08:16:46.126Z,1018.74
2018-01-28T08:17:35.176Z,1018.77
2018-01-28T08:18:32.114Z,1018.83
2018-01-28T08:19:48.605Z,1018.82
2018-01-28T08:20:53.116Z,1018.84
2018-01-28T08:23:02.466Z,1018.84
2018-01-28T08:24:18.533Z,1018.82
2018-01-28T08:26:13.016Z,1018.79
2018-01-28T08:28:36.583Z,1018.76
2018-01-28T08:29:38.242Z,1018.82
2018-01-28T08:30:39.566Z,1018.79
2018-01-28T08:31:49.916Z,1018.80
2018-01-28T08:32:52.484Z,1018.82
2018-01-28T08:33:58.439Z,1018.81
2018-01-28T08:35:07.347Z,1018.77
2018-01-28T08:36:13.802Z,1018.80
2018-01-28T08:37:09.114Z,1018.75
2018-01-28T08:38:19.348Z,1018.79
2018-01-28T08:39:32.978Z,1018.76
2018-01-28T08:41:36.469Z,1018.85
2018-01-28T08:42:45.590Z,1018.82
2018-01-28T08:43:50.308Z,1018.87
2018-01-28T08:46:07.219Z,1018.85
2018-01-28T08:47:58.233Z,1018.85
2018-01-28T08:49:13.904Z,1018.85
2018-01-28T08:50:16.674Z,1018.82
2018-01-28T08:51:21.896Z,1018.75
2018-01-28T08:53:42.189Z,1018.74
2018-01-28T08:54:40.042Z,1018.73
2018-01-28T08:55:51.209Z,1018.73
2018-01-28T08:56:51.830Z,1018.75
2018-01-28T08:57:51.121Z,1018.76
2018-01-28T08:59:12.428Z,1018.76
2018-01-28T09:00:08.749Z,1018.75
2018-01-28T09:01:17.051Z,1018.77
2018-01-28T09:02:19.412Z,1018.65
2018-01-28T09:03:24.752Z,1018.71
2018-01-28T09:05:40.016Z,1018.77
2018-01-28T09:06:44.426Z,1018.72
2018-01-28T09:08:56.529Z,1018.84
2018-01-28T09:09:57.042Z,1018.87
2018-01-28T09:11:09.032Z,1018.86
2018-01-28T09:12:08.014Z,1018.90
2018-01-28T09:13:15.597Z,1018.90
2018-01-28T09:14:36.708Z,1018.93
2018-01-28T09:15:24.725Z,1018.93
2018-01-28T09:16:29.237Z,1018.96
2018-01-28T09:17:31.088Z,1018.99
2018-01-28T09:18:37.852Z,1018.96
2018-01-28T09:20:52.921Z,1019.09
2018-01-28T09:23:13.416Z,1019.15
2018-01-28T09:24:16.287Z,1019.14
2018-01-28T09:25:22.344Z,1019.07
2018-01-28T09:26:16.718Z,1019.11
2018-01-28T09:27:22.862Z,1019.06
2018-01-28T09:28:41.610Z,1019.06
2018-01-28T09:29:46.633Z,1019.03
2018-01-28T09:30:41.731Z,1019.11
2018-01-28T09:31:48.286Z,1019.13
2018-01-28T09:32:46.962Z,1019.13
2018-01-28T09:34:07.760Z,1019.12
2018-01-28T09:35:06.124Z,1019.11
2018-01-28T09:36:12.992Z,1019.16
2018-01-28T09:37:23.139Z,1019.16
2018-01-28T09:38:24.317Z,1019.22
2018-01-28T09:39:42.300Z,1019.18
2018-01-28T09:40:36.064Z,1019.16
2018-01-28T09:41:32.126Z,1019.18
2018-01-28T09:42:46.929Z,1019.23
2018-01-28T09:43:45.911Z,1019.21
2018-01-28T09:44:48.888Z,1019.24
2018-01-28T09:45:52.684Z,1019.17
2018-01-28T09:47:07.334Z,1019.23
2018-01-28T09:48:02.632Z,1019.24
2018-01-28T09:49:19.023Z,1019.28
2018-01-28T09:50:25.994Z,1019.25
2018-01-28T09:51:22.927Z,1019.29
2018-01-28T09:52:31.025Z,1019.24
2018-01-28T09:53:46.086Z,1019.24
2018-01-28T09:54:52.952Z,1019.35
2018-01-28T09:55:55.521Z,1019.36
2018-01-28T09:56:53.989Z,1019.34
2018-01-28T09:59:09.262Z,1019.35
2018-01-28T10:00:14.593Z,1019.41
2018-01-28T10:01:18.594Z,1019.37
2018-01-28T10:02:28.329Z,1019.40
2018-01-28T10:03:33.252Z,1019.40
2018-01-28T10:05:39.819Z,1019.52
2018-01-28T10:06:37.983Z,1019.61
2018-01-28T10:07:48.126Z,1019.61
2018-01-28T10:08:57.454Z,1019.56
2018-01-28T10:10:01.258Z,1019.65
2018-01-28T10:11:05.251Z,1019.64
2018-01-28T10:12:06.177Z,1019.62
2018-01-28T10:13:12.431Z,1019.66
2018-01-28T10:14:22.884Z,1019.72
2018-01-28T10:15:41.833Z,1019.70
2018-01-28T10:16:37.849Z,1019.75
2018-01-28T10:18:48.714Z,1019.78
2018-01-28T10:19:48.107Z,1019.78
2018-01-28T10:22:09.422Z,1019.79
2018-01-28T10:23:03.709Z,1019.85
2018-01-28T10:24:13.019Z,1019.83
2018-01-28T10:25:13.651Z,1019.87
2018-01-28T10:26:11.710Z,1019.83
2018-01-28T10:27:31.472Z,1019.84
2018-01-28T10:28:37.127Z,1019.88
2018-01-28T10:29:29.541Z,1019.87
2018-01-28T10:30:41.836Z,1019.85
2018-01-28T10:31:50.449Z,1019.78
2018-01-28T10:32:56.799Z,1019.73
2018-01-28T10:33:58.855Z,1019.68
2018-01-28T10:35:01.217Z,1019.66
2018-01-28T10:36:15.266Z,1019.70
2018-01-28T10:37:15.056Z,1019.67
2018-01-28T10:38:34.213Z,1019.74
2018-01-28T10:39:22.033Z,1019.77
2018-01-28T10:40:28.390Z,1019.74
2018-01-28T10:41:42.949Z,1019.70
2018-01-28T10:42:57.279Z,1019.63
2018-01-28T10:43:51.459Z,1019.63
2018-01-28T10:44:58.419Z,1019.62
2018-01-28T10:46:04.980Z,1019.61
2018-01-28T10:47:07.956Z,1019.64
2018-01-28T10:48:14.825Z,1019.67
2018-01-28T10:49:27.325Z,1019.68
2018-01-28T10:50:23.133Z,1019.68
2018-01-28T10:51:27.338Z,1019.64
2018-01-28T10:52:40.455Z,1019.60
2018-01-28T10:53:40.152Z,1019.54
2018-01-28T10:54:49.990Z,1019.58
2018-01-28T10:56:03.314Z,1019.55
2018-01-28T10:56:52.256Z,1019.56
2018-01-28T10:57:59.640Z,1019.65
2018-01-28T10:59:37.337Z,1019.61
2018-01-28T11:00:19.414Z,1019.55
2018-01-28T11:01:34.380Z,1019.60
2018-01-28T11:02:28.336Z,1019.56
2018-01-28T11:03:35.821Z,1019.55
2018-01-28T11:04:31.734Z,1019.61
2018-01-28T11:05:38.597Z,1019.57
2018-01-28T11:06:46.081Z,1019.49
2018-01-28T11:08:58.280Z,1019.59
2018-01-28T11:10:10.063Z,1019.60
2018-01-28T11:11:12.324Z,1019.60
2018-01-28T11:12:25.643Z,1019.60
2018-01-28T11:13:15.408Z,1019.63
2018-01-28T11:14:26.271Z,1019.59
2018-01-28T11:16:37.446Z,1019.61
2018-01-28T11:17:44.927Z,1019.63
2018-01-28T11:18:48.627Z,1019.58
2018-01-28T11:20:01.633Z,1019.54
2018-01-28T11:20:58.370Z,1019.61
2018-01-28T11:22:07.893Z,1019.46
2018-01-28T11:23:24.080Z,1019.48
2018-01-28T11:24:22.244Z,1019.48
2018-01-28T11:25:17.028Z,1019.51
2018-01-28T11:26:47.039Z,1019.53
2018-01-28T11:27:45.611Z,1019.49
2018-01-28T11:28:46.642Z,1019.43
2018-01-28T11:30:59.152Z,1019.50
2018-01-28T11:32:27.214Z,1019.45
2018-01-28T11:33:13.707Z,1019.36
2018-01-28T11:34:23.954Z,1019.44
2018-01-28T11:35:21.913Z,1019.47
2018-01-28T11:36:20.688Z,1019.46
2018-01-28T11:38:42.928Z,1019.45
2018-01-28T11:39:35.352Z,1019.43
2018-01-28T11:40:39.764Z,1019.48
2018-01-28T11:41:56.258Z,1019.45
2018-01-28T11:42:50.016Z,1019.50
2018-01-28T11:43:56.191Z,1019.51
2018-01-28T11:45:15.735Z,1019.51
2018-01-28T11:46:17.482Z,1019.52
2018-01-28T11:47:13.393Z,1019.51
2018-01-28T11:48:26.361Z,1019.50
2018-01-28T11:49:43.923Z,1019.61
2018-01-28T11:51:40.454Z,1019.60
2018-01-28T11:52:53.673Z,1019.56
2018-01-28T11:53:48.660Z,1019.52
2018-01-28T11:54:54.406Z,1019.58
2018-01-28T11:56:00.246Z,1019.64
2018-01-28T11:57:11.209Z,1019.62
2018-01-28T11:58:03.230Z,1019.63
2018-01-28T11:59:19.108Z,1019.68
2018-01-28T12:00:16.657Z,1019.69
2018-01-28T12:01:34.585Z,1019.83
2018-01-28T12:02:34.183Z,1019.79
2018-01-28T12:03:33.985Z,1019.87
2018-01-28T12:04:43.515Z,1019.89
2018-01-28T12:05:55.509Z,1019.90
2018-01-28T12:06:49.468Z,1019.89
2018-01-28T12:08:09.856Z,1019.81
2018-01-28T12:09:01.266Z,1019.77
2018-01-28T12:10:20.414Z,1019.88
2018-01-28T12:11:11.819Z,1019.75
2018-01-28T12:12:20.340Z,1019.79
2018-01-28T12:15:39.092Z,1019.81
2018-01-28T12:16:53.224Z,1019.79
2018-01-28T12:18:01.731Z,1019.81
2018-01-28T12:18:52.628Z,1019.76
2018-01-28T12:20:05.021Z,1019.70
2018-01-28T12:22:08.315Z,1019.72
2018-01-28T12:23:22.142Z,1019.76
2018-01-28T12:24:26.349Z,1019.63
2018-01-28T12:25:27.486Z,1019.71
2018-01-28T12:27:41.631Z,1019.67
2018-01-28T12:28:54.440Z,1019.66
2018-01-28T12:29:46.248Z,1019.60
2018-01-28T12:30:53.219Z,1019.58
2018-01-28T12:32:02.650Z,1019.51
2018-01-28T12:33:03.064Z,1019.60
2018-01-28T12:35:10.348Z,1019.50
2018-01-28T12:36:22.746Z,1019.50
2018-01-28T12:37:40.784Z,1019.48
2018-01-28T12:39:35.471Z,1019.43
2018-01-28T12:40:48.382Z,1019.57
2018-01-28T12:41:45.311Z,1019.52
2018-01-28T12:42:59.038Z,1019.49
2018-01-28T12:46:18.411Z,1019.55
2018-01-28T12:47:14.527Z,1019.46
2018-01-28T12:48:21.703Z,1019.45
2018-01-28T12:49:33.076Z,1019.45
2018-01-28T12:50:37.589Z,1019.38
2018-01-28T12:51:36.981Z,1019.36
2018-01-28T12:52:46.718Z,1019.39
2018-01-28T12:53:48.668Z,1019.31
2018-01-28T12:54:54.722Z,1019.35
2018-01-28T12:56:05.784Z,1019.26
2018-01-28T12:57:04.255Z,1019.27
2018-01-28T12:58:09.113Z,1019.08
2018-01-28T12:59:18.605Z,1019.15
2018-01-28T13:00:25.165Z,1019.12
2018-01-28T13:01:27.734Z,1019.04
2018-01-28T13:02:31.948Z,1019.17
2018-01-28T13:03:43.524Z,1019.05
2018-01-28T13:04:55.813Z,1019.03
2018-01-28T13:05:52.439Z,1019.02
2018-01-28T13:07:01.459Z,1019.13
2018-01-28T13:07:58.700Z,1019.06
2018-01-28T13:09:13.051Z,1019.13
2018-01-28T13:10:10.285Z,1019.07
2018-01-28T13:11:14.797Z,1019.04
2018-01-28T13:12:27.093Z,1019.10
2018-01-28T13:13:27.611Z,1019.08
2018-01-28T13:14:34.070Z,1019.13
2018-01-28T13:15:53.239Z,1019.10
2018-01-28T13:16:49.342Z,1019.11
2018-01-28T13:17:50.374Z,1019.04
2018-01-28T13:19:00.005Z,1018.97
2018-01-28T13:22:16.112Z,1018.95
2018-01-28T13:23:13.139Z,1018.95
2018-01-28T13:24:30.352Z,1018.82
2018-01-28T13:25:32.098Z,1018.81
2018-01-28T13:26:34.359Z,1018.89
2018-01-28T13:27:36.823Z,1018.91
2018-01-28T13:28:53.932Z,1018.94
2018-01-28T13:30:53.432Z,1018.99
2018-01-28T13:32:03.577Z,1018.98
2018-01-28T13:33:12.698Z,1019.00
2018-01-28T13:34:12.090Z,1018.97
2018-01-28T13:35:25.619Z,1019.01
2018-01-28T13:36:25.834Z,1019.01
2018-01-28T13:37:29.212Z,1018.97
2018-01-28T13:38:33.934Z,1018.98
2018-01-28T13:39:47.044Z,1018.85
2018-01-28T13:40:37.844Z,1018.92
2018-01-28T13:41:52.280Z,1018.85
2018-01-28T13:42:56.077Z,1018.92
2018-01-28T13:44:01.420Z,1018.96
2018-01-28T13:45:06.051Z,1018.79
2018-01-28T13:46:11.158Z,1018.92
2018-01-28T13:47:18.428Z,1018.84
2018-01-28T13:48:27.862Z,1018.83
2018-01-28T13:49:36.977Z,1018.71
2018-01-28T13:50:47.333Z,1018.73
2018-01-28T13:51:40.369Z,1018.68
2018-01-28T13:52:51.129Z,1018.76
2018-01-28T13:53:51.135Z,1018.78
2018-01-28T13:54:53.293Z,1018.74
2018-01-28T13:56:01.598Z,1018.70
2018-01-28T13:58:14.521Z,1018.73
2018-01-28T13:59:24.758Z,1018.85
2018-01-28T14:00:32.758Z,1018.90
2018-01-28T14:01:41.771Z,1018.85
2018-01-28T14:02:30.409Z,1018.83
2018-01-28T14:03:48.031Z,1018.88
2018-01-28T14:05:53.369Z,1018.87
2018-01-28T14:07:08.232Z,1018.96
2018-01-28T14:08:04.346Z,1019.00
2018-01-28T14:10:17.565Z,1019.11
2018-01-28T14:11:33.752Z,1019.06
2018-01-28T14:12:29.045Z,1019.06
2018-01-28T14:13:33.876Z,1019.06
2018-01-28T14:14:39.403Z,1019.05
2018-01-28T14:16:52.730Z,1019.12
2018-01-28T14:17:53.556Z,1019.05
2018-01-28T14:18:51.927Z,1019.03
2018-01-28T14:21:18.564Z,1019.00
2018-01-28T14:22:17.858Z,1018.92
2018-01-28T14:23:34.348Z,1018.98
2018-01-28T14:26:39.077Z,1019.11
2018-01-28T14:27:44.416Z,1019.01
2018-01-28T14:28:45.351Z,1019.04
2018-01-28T14:29:55.583Z,1019.00
2018-01-28T14:31:01.124Z,1019.09
2018-01-28T14:33:11.477Z,1019.22
2018-01-28T14:34:22.034Z,1019.16
2018-01-28T14:35:27.261Z,1019.10
2018-01-28T14:36:38.122Z,1019.16
2018-01-28T14:37:39.877Z,1019.09
2018-01-28T14:38:40.099Z,1019.09
2018-01-28T14:39:46.439Z,1019.08
2018-01-28T14:41:58.740Z,1019.15
2018-01-28T14:43:07.557Z,1019.10
2018-01-28T14:45:23.555Z,1019.08
2018-01-28T14:46:14.846Z,1019.14
2018-01-28T14:47:26.423Z,1019.10
2018-01-28T14:48:39.340Z,1019.10
2018-01-28T14:49:29.614Z,1019.08
2018-01-28T14:50:37.607Z,1019.09
2018-01-28T14:51:41.402Z,1019.11
2018-01-28T14:52:52.063Z,1019.10
2018-01-28T14:55:02.927Z,1018.98